sensor_id;sensor_type;location;lat;lon;timestamp;temperature;humidity
16732;DHT22;8484;50.904;9.192;2022-10-16T00:00:04;15.00;99.90
16732;DHT22;8484;50.904;9.192;2022-10-16T00:02:31;15.00;99.90
16732;DHT22;8484;50.904;9.192;2022-10-16T00:04:58;15.10;99.90
16732;DHT22;8484;50.904;9.192;2022-10-16T00:07:27;15.10;99.90
16732;DHT22;8484;50.904;9.192;2022-10-16T00:09:54;15.20;99.90
16732;DHT22;8484;50.904;9.192;2022-10-16T00:12:21;15.80;99.90
16732;DHT22;8484;50.904;9.192;2022-10-16T00:14:48;15.20;99.90
16732;DHT22;8484;50.904;9.192;2022-10-16T00:17:16;15.20;99.90
16732;DHT22;8484;50.904;9.192;2022-10-16T00:19:44;15.00;99.90
16732;DHT22;8484;50.904;9.192;2022-10-16T00:22:11;15.00;99.90
16732;DHT22;8484;50.904;9.192;2022-10-16T00:24:38;16.30;99.90
16732;DHT22;8484;50.904;9.192;2022-10-16T00:27:05;14.60;99.90
16732;DHT22;8484;50.904;9.192;2022-10-16T00:29:33;14.70;99.90
16732;DHT22;8484;50.904;9.192;2022-10-16T00:32:00;14.70;99.90
16732;DHT22;8484;50.904;9.192;2022-10-16T00:34:28;14.70;99.90
16732;DHT22;8484;50.904;9.192;2022-10-16T00:36:56;14.60;99.90
16732;DHT22;8484;50.904;9.192;2022-10-16T00:39:23;14.70;99.90
16732;DHT22;8484;50.904;9.192;2022-10-16T00:41:50;14.80;99.90
16732;DHT22;8484;50.904;9.192;2022-10-16T00:44:43;15.00;99.90
16732;DHT22;8484;50.904;9.192;2022-10-16T00:47:15;14.70;99.90
16732;DHT22;8484;50.904;9.192;2022-10-16T00:49:46;16.30;99.90
16732;DHT22;8484;50.904;9.192;2022-10-16T00:52:14;15.00;99.90
16732;DHT22;8484;50.904;9.192;2022-10-16T00:54:42;14.60;99.90
16732;DHT22;8484;50.904;9.192;2022-10-16T00:57:09;14.80;99.90
16732;DHT22;8484;50.904;9.192;2022-10-16T00:59:40;16.00;99.90
16732;DHT22;8484;50.904;9.192;2022-10-16T01:02:10;14.80;99.90
16732;DHT22;8484;50.904;9.192;2022-10-16T01:04:41;14.80;99.90
16732;DHT22;8484;50.904;9.192;2022-10-16T01:07:14;14.70;99.90
16732;DHT22;8484;50.904;9.192;2022-10-16T01:09:51;14.80;99.90
16732;DHT22;8484;50.904;9.192;2022-10-16T01:12:28;14.90;99.90
16732;DHT22;8484;50.904;9.192;2022-10-16T01:15:00;14.80;99.90
16732;DHT22;8484;50.904;9.192;2022-10-16T01:17:34;14.20;99.90
16732;DHT22;8484;50.904;9.192;2022-10-16T01:20:11;14.70;99.90
16732;DHT22;8484;50.904;9.192;2022-10-16T01:23:05;14.70;99.90
16732;DHT22;8484;50.904;9.192;2022-10-16T01:25:58;14.70;99.90
16732;DHT22;8484;50.904;9.192;2022-10-16T01:28:34;14.70;99.90
16732;DHT22;8484;50.904;9.192;2022-10-16T01:31:03;14.70;99.90
16732;DHT22;8484;50.904;9.192;2022-10-16T01:33:34;14.70;99.90
16732;DHT22;8484;50.904;9.192;2022-10-16T01:36:07;14.80;99.90
16732;DHT22;8484;50.904;9.192;2022-10-16T01:38:39;14.60;99.90
16732;DHT22;8484;50.904;9.192;2022-10-16T01:41:09;14.70;99.90
16732;DHT22;8484;50.904;9.192;2022-10-16T01:43:40;14.60;99.90
16732;DHT22;8484;50.904;9.192;2022-10-16T01:46:10;14.60;99.90
16732;DHT22;8484;50.904;9.192;2022-10-16T01:48:41;15.70;99.90
16732;DHT22;8484;50.904;9.192;2022-10-16T01:51:10;14.50;99.90
16732;DHT22;8484;50.904;9.192;2022-10-16T01:53:39;14.40;99.90
16732;DHT22;8484;50.904;9.192;2022-10-16T01:56:09;14.40;99.90
16732;DHT22;8484;50.904;9.192;2022-10-16T01:58:43;14.30;99.90
16732;DHT22;8484;50.904;9.192;2022-10-16T02:01:13;15.90;99.90
16732;DHT22;8484;50.904;9.192;2022-10-16T02:03:43;14.70;99.90
16732;DHT22;8484;50.904;9.192;2022-10-16T02:06:12;14.40;99.90
16732;DHT22;8484;50.904;9.192;2022-10-16T02:08:39;14.30;99.90
16732;DHT22;8484;50.904;9.192;2022-10-16T02:11:10;15.00;99.90
16732;DHT22;8484;50.904;9.192;2022-10-16T02:13:41;13.80;99.90
16732;DHT22;8484;50.904;9.192;2022-10-16T02:16:10;14.20;99.90
16732;DHT22;8484;50.904;9.192;2022-10-16T02:18:39;14.10;99.90
16732;DHT22;8484;50.904;9.192;2022-10-16T02:21:11;14.40;99.90
16732;DHT22;8484;50.904;9.192;2022-10-16T02:23:47;15.10;99.90
16732;DHT22;8484;50.904;9.192;2022-10-16T02:26:29;14.00;99.90
16732;DHT22;8484;50.904;9.192;2022-10-16T02:29:02;14.20;99.90
16732;DHT22;8484;50.904;9.192;2022-10-16T02:31:34;13.80;99.90
16732;DHT22;8484;50.904;9.192;2022-10-16T02:34:04;13.80;99.90
16732;DHT22;8484;50.904;9.192;2022-10-16T02:36:32;13.80;99.90
16732;DHT22;8484;50.904;9.192;2022-10-16T02:39:02;13.70;99.90
16732;DHT22;8484;50.904;9.192;2022-10-16T02:41:30;14.10;99.90
16732;DHT22;8484;50.904;9.192;2022-10-16T02:43:59;13.80;99.90
16732;DHT22;8484;50.904;9.192;2022-10-16T02:46:29;13.80;99.90
16732;DHT22;8484;50.904;9.192;2022-10-16T02:48:56;13.60;99.90
16732;DHT22;8484;50.904;9.192;2022-10-16T02:51:23;14.00;99.90
16732;DHT22;8484;50.904;9.192;2022-10-16T02:53:50;13.50;99.90
16732;DHT22;8484;50.904;9.192;2022-10-16T02:56:20;13.60;99.90
16732;DHT22;8484;50.904;9.192;2022-10-16T02:58:50;13.90;99.90
16732;DHT22;8484;50.904;9.192;2022-10-16T03:01:23;13.50;99.90
16732;DHT22;8484;50.904;9.192;2022-10-16T03:03:51;13.00;99.90
16732;DHT22;8484;50.904;9.192;2022-10-16T03:06:18;13.00;99.90
16732;DHT22;8484;50.904;9.192;2022-10-16T03:08:45;13.70;99.90
16732;DHT22;8484;50.904;9.192;2022-10-16T03:11:12;14.00;99.90
16732;DHT22;8484;50.904;9.192;2022-10-16T03:13:57;13.70;99.90
16732;DHT22;8484;50.904;9.192;2022-10-16T03:16:26;14.30;99.90
16732;DHT22;8484;50.904;9.192;2022-10-16T03:18:53;14.70;99.90
16732;DHT22;8484;50.904;9.192;2022-10-16T03:21:20;13.60;99.90
16732;DHT22;8484;50.904;9.192;2022-10-16T03:23:49;13.60;99.90
16732;DHT22;8484;50.904;9.192;2022-10-16T03:26:50;13.60;99.90
16732;DHT22;8484;50.904;9.192;2022-10-16T03:29:21;13.00;99.90
16732;DHT22;8484;50.904;9.192;2022-10-16T03:31:53;13.50;99.90
16732;DHT22;8484;50.904;9.192;2022-10-16T03:34:20;13.90;99.90
16732;DHT22;8484;50.904;9.192;2022-10-16T03:36:47;13.70;99.90
16732;DHT22;8484;50.904;9.192;2022-10-16T03:39:19;13.70;99.90
16732;DHT22;8484;50.904;9.192;2022-10-16T03:41:46;13.70;99.90
16732;DHT22;8484;50.904;9.192;2022-10-16T03:44:16;13.70;99.90
16732;DHT22;8484;50.904;9.192;2022-10-16T03:46:44;13.60;99.90
16732;DHT22;8484;50.904;9.192;2022-10-16T03:49:13;13.40;99.90
16732;DHT22;8484;50.904;9.192;2022-10-16T03:51:40;13.60;99.90
16732;DHT22;8484;50.904;9.192;2022-10-16T03:54:07;13.60;99.90
16732;DHT22;8484;50.904;9.192;2022-10-16T03:56:34;14.00;99.90
16732;DHT22;8484;50.904;9.192;2022-10-16T03:59:01;13.80;99.90
16732;DHT22;8484;50.904;9.192;2022-10-16T04:01:28;13.80;99.90
16732;DHT22;8484;50.904;9.192;2022-10-16T04:03:56;13.80;99.90
16732;DHT22;8484;50.904;9.192;2022-10-16T04:06:24;14.20;99.90
16732;DHT22;8484;50.904;9.192;2022-10-16T04:08:51;13.70;99.90
16732;DHT22;8484;50.904;9.192;2022-10-16T04:11:18;14.10;99.90
16732;DHT22;8484;50.904;9.192;2022-10-16T04:13:51;14.10;99.90
16732;DHT22;8484;50.904;9.192;2022-10-16T04:16:18;14.20;99.90
16732;DHT22;8484;50.904;9.192;2022-10-16T04:18:46;14.10;99.90
16732;DHT22;8484;50.904;9.192;2022-10-16T04:21:13;14.10;99.90
16732;DHT22;8484;50.904;9.192;2022-10-16T04:23:42;14.10;99.90
16732;DHT22;8484;50.904;9.192;2022-10-16T04:26:09;14.00;99.90
16732;DHT22;8484;50.904;9.192;2022-10-16T04:28:37;14.10;99.90
16732;DHT22;8484;50.904;9.192;2022-10-16T04:31:04;15.40;99.90
16732;DHT22;8484;50.904;9.192;2022-10-16T04:33:31;14.00;99.90
16732;DHT22;8484;50.904;9.192;2022-10-16T04:35:59;14.40;99.90
16732;DHT22;8484;50.904;9.192;2022-10-16T04:38:28;14.80;99.90
16732;DHT22;8484;50.904;9.192;2022-10-16T04:40:57;14.40;99.90
16732;DHT22;8484;50.904;9.192;2022-10-16T04:43:25;14.20;99.90
16732;DHT22;8484;50.904;9.192;2022-10-16T04:46:30;13.80;99.90
16732;DHT22;8484;50.904;9.192;2022-10-16T04:48:58;14.00;99.90
16732;DHT22;8484;50.904;9.192;2022-10-16T04:51:25;14.00;99.90
16732;DHT22;8484;50.904;9.192;2022-10-16T04:53:53;14.00;99.90
16732;DHT22;8484;50.904;9.192;2022-10-16T04:56:22;14.10;99.90
16732;DHT22;8484;50.904;9.192;2022-10-16T04:58:50;14.00;99.90
16732;DHT22;8484;50.904;9.192;2022-10-16T05:01:17;14.00;99.90
16732;DHT22;8484;50.904;9.192;2022-10-16T05:03:44;14.50;99.90
16732;DHT22;8484;50.904;9.192;2022-10-16T05:06:29;14.00;99.90
16732;DHT22;8484;50.904;9.192;2022-10-16T05:08:56;14.00;99.90
16732;DHT22;8484;50.904;9.192;2022-10-16T05:11:30;14.00;99.90
16732;DHT22;8484;50.904;9.192;2022-10-16T05:14:08;14.00;99.90
16732;DHT22;8484;50.904;9.192;2022-10-16T05:16:42;14.00;99.90
16732;DHT22;8484;50.904;9.192;2022-10-16T05:19:17;14.00;99.90
16732;DHT22;8484;50.904;9.192;2022-10-16T05:21:45;14.00;99.90
16732;DHT22;8484;50.904;9.192;2022-10-16T05:24:12;14.00;99.90
16732;DHT22;8484;50.904;9.192;2022-10-16T05:26:41;13.90;99.90
16732;DHT22;8484;50.904;9.192;2022-10-16T05:29:09;14.30;99.90
16732;DHT22;8484;50.904;9.192;2022-10-16T05:31:36;13.80;99.90
16732;DHT22;8484;50.904;9.192;2022-10-16T05:34:03;13.80;99.90
16732;DHT22;8484;50.904;9.192;2022-10-16T05:36:41;13.70;99.90
16732;DHT22;8484;50.904;9.192;2022-10-16T05:39:10;14.00;99.90
16732;DHT22;8484;50.904;9.192;2022-10-16T05:41:38;13.90;99.90
16732;DHT22;8484;50.904;9.192;2022-10-16T05:44:07;15.10;99.90
16732;DHT22;8484;50.904;9.192;2022-10-16T05:46:39;13.70;99.90
16732;DHT22;8484;50.904;9.192;2022-10-16T05:49:09;13.80;99.90
16732;DHT22;8484;50.904;9.192;2022-10-16T05:51:36;14.80;99.90
16732;DHT22;8484;50.904;9.192;2022-10-16T05:54:03;15.10;99.90
16732;DHT22;8484;50.904;9.192;2022-10-16T05:56:31;14.20;99.90
16732;DHT22;8484;50.904;9.192;2022-10-16T05:58:58;13.80;99.90
16732;DHT22;8484;50.904;9.192;2022-10-16T06:01:26;13.80;99.90
16732;DHT22;8484;50.904;9.192;2022-10-16T06:03:54;13.70;99.90
16732;DHT22;8484;50.904;9.192;2022-10-16T06:06:24;13.70;99.90
16732;DHT22;8484;50.904;9.192;2022-10-16T06:08:52;14.90;99.90
16732;DHT22;8484;50.904;9.192;2022-10-16T06:11:22;13.70;99.90
16732;DHT22;8484;50.904;9.192;2022-10-16T06:13:51;14.00;99.90
16732;DHT22;8484;50.904;9.192;2022-10-16T06:16:18;13.60;99.90
16732;DHT22;8484;50.904;9.192;2022-10-16T06:18:47;13.60;99.90
16732;DHT22;8484;50.904;9.192;2022-10-16T06:21:16;13.60;99.90
16732;DHT22;8484;50.904;9.192;2022-10-16T06:23:44;13.60;99.90
16732;DHT22;8484;50.904;9.192;2022-10-16T06:26:15;14.00;99.90
16732;DHT22;8484;50.904;9.192;2022-10-16T06:28:44;13.20;99.90
16732;DHT22;8484;50.904;9.192;2022-10-16T06:31:12;13.50;99.90
16732;DHT22;8484;50.904;9.192;2022-10-16T06:33:40;14.30;99.90
16732;DHT22;8484;50.904;9.192;2022-10-16T06:36:09;13.50;99.90
16732;DHT22;8484;50.904;9.192;2022-10-16T06:38:39;13.20;99.90
16732;DHT22;8484;50.904;9.192;2022-10-16T06:41:07;13.60;99.90
16732;DHT22;8484;50.904;9.192;2022-10-16T06:43:35;14.70;99.90
16732;DHT22;8484;50.904;9.192;2022-10-16T06:46:03;13.70;99.90
16732;DHT22;8484;50.904;9.192;2022-10-16T06:48:31;13.70;99.90
16732;DHT22;8484;50.904;9.192;2022-10-16T06:50:59;14.80;99.90
16732;DHT22;8484;50.904;9.192;2022-10-16T06:53:29;13.90;99.90
16732;DHT22;8484;50.904;9.192;2022-10-16T06:55:57;13.90;99.90
16732;DHT22;8484;50.904;9.192;2022-10-16T06:58:24;13.80;99.90
16732;DHT22;8484;50.904;9.192;2022-10-16T07:00:55;14.10;99.90
16732;DHT22;8484;50.904;9.192;2022-10-16T07:03:23;14.50;99.90
16732;DHT22;8484;50.904;9.192;2022-10-16T07:05:50;13.60;99.90
16732;DHT22;8484;50.904;9.192;2022-10-16T07:08:17;14.20;99.90
16732;DHT22;8484;50.904;9.192;2022-10-16T07:10:46;14.90;99.90
16732;DHT22;8484;50.904;9.192;2022-10-16T07:13:13;14.10;99.90
16732;DHT22;8484;50.904;9.192;2022-10-16T07:15:40;13.90;99.90
16732;DHT22;8484;50.904;9.192;2022-10-16T07:18:08;13.70;99.90
16732;DHT22;8484;50.904;9.192;2022-10-16T07:20:35;14.20;99.90
16732;DHT22;8484;50.904;9.192;2022-10-16T07:23:03;13.60;99.90
16732;DHT22;8484;50.904;9.192;2022-10-16T07:25:30;13.50;99.90
16732;DHT22;8484;50.904;9.192;2022-10-16T07:27:58;13.60;99.90
16732;DHT22;8484;50.904;9.192;2022-10-16T07:30:25;14.20;99.90
16732;DHT22;8484;50.904;9.192;2022-10-16T07:32:53;13.70;99.90
16732;DHT22;8484;50.904;9.192;2022-10-16T07:35:20;14.00;99.90
16732;DHT22;8484;50.904;9.192;2022-10-16T07:37:47;13.80;99.90
16732;DHT22;8484;50.904;9.192;2022-10-16T07:40:14;13.80;99.90
16732;DHT22;8484;50.904;9.192;2022-10-16T07:42:41;13.70;99.90
16732;DHT22;8484;50.904;9.192;2022-10-16T07:45:10;14.00;99.90
16732;DHT22;8484;50.904;9.192;2022-10-16T08:02:56;14.50;99.90
16732;DHT22;8484;50.904;9.192;2022-10-16T08:05:25;14.80;99.90
16732;DHT22;8484;50.904;9.192;2022-10-16T08:07:53;15.30;99.90
16732;DHT22;8484;50.904;9.192;2022-10-16T08:10:21;15.20;99.90
16732;DHT22;8484;50.904;9.192;2022-10-16T08:12:49;16.10;99.90
16732;DHT22;8484;50.904;9.192;2022-10-16T08:15:17;15.20;99.90
16732;DHT22;8484;50.904;9.192;2022-10-16T08:17:45;15.70;99.90
16732;DHT22;8484;50.904;9.192;2022-10-16T08:20:21;15.50;99.90
16732;DHT22;8484;50.904;9.192;2022-10-16T08:22:48;15.40;99.90
16732;DHT22;8484;50.904;9.192;2022-10-16T08:25:16;15.50;99.90
16732;DHT22;8484;50.904;9.192;2022-10-16T08:27:43;15.70;99.90
16732;DHT22;8484;50.904;9.192;2022-10-16T08:30:10;15.70;99.90
16732;DHT22;8484;50.904;9.192;2022-10-16T08:32:38;15.90;99.90
16732;DHT22;8484;50.904;9.192;2022-10-16T08:35:05;15.90;99.90
16732;DHT22;8484;50.904;9.192;2022-10-16T08:37:34;16.00;99.90
16732;DHT22;8484;50.904;9.192;2022-10-16T08:40:01;16.20;99.90
16732;DHT22;8484;50.904;9.192;2022-10-16T08:42:40;16.00;99.90
16732;DHT22;8484;50.904;9.192;2022-10-16T08:45:37;16.30;99.90
16732;DHT22;8484;50.904;9.192;2022-10-16T08:48:14;16.20;99.90
16732;DHT22;8484;50.904;9.192;2022-10-16T08:50:43;16.30;99.90
16732;DHT22;8484;50.904;9.192;2022-10-16T08:53:16;16.60;99.90
16732;DHT22;8484;50.904;9.192;2022-10-16T08:55:46;16.40;99.90
16732;DHT22;8484;50.904;9.192;2022-10-16T08:58:17;16.40;99.90
16732;DHT22;8484;50.904;9.192;2022-10-16T09:00:47;16.70;99.90
16732;DHT22;8484;50.904;9.192;2022-10-16T09:03:28;16.80;99.90
16732;DHT22;8484;50.904;9.192;2022-10-16T09:09:13;17.60;99.90
16732;DHT22;8484;50.904;9.192;2022-10-16T09:11:56;17.40;99.90
16732;DHT22;8484;50.904;9.192;2022-10-16T09:14:39;17.40;99.90
16732;DHT22;8484;50.904;9.192;2022-10-16T09:17:20;16.90;99.90
16732;DHT22;8484;50.904;9.192;2022-10-16T09:19:54;17.00;99.90
16732;DHT22;8484;50.904;9.192;2022-10-16T09:22:26;17.80;99.90
16732;DHT22;8484;50.904;9.192;2022-10-16T09:24:59;17.70;99.90
16732;DHT22;8484;50.904;9.192;2022-10-16T09:27:27;18.10;99.90
16732;DHT22;8484;50.904;9.192;2022-10-16T09:29:54;18.80;99.90
16732;DHT22;8484;50.904;9.192;2022-10-16T09:32:22;18.50;99.90
16732;DHT22;8484;50.904;9.192;2022-10-16T09:34:52;18.90;99.90
16732;DHT22;8484;50.904;9.192;2022-10-16T09:37:21;19.70;99.90
16732;DHT22;8484;50.904;9.192;2022-10-16T09:39:50;18.30;99.90
16732;DHT22;8484;50.904;9.192;2022-10-16T09:42:20;18.20;99.90
16732;DHT22;8484;50.904;9.192;2022-10-16T09:44:50;18.80;99.90
16732;DHT22;8484;50.904;9.192;2022-10-16T09:47:20;18.90;99.90
16732;DHT22;8484;50.904;9.192;2022-10-16T09:49:52;18.50;99.90
16732;DHT22;8484;50.904;9.192;2022-10-16T09:52:19;17.60;99.90
16732;DHT22;8484;50.904;9.192;2022-10-16T09:54:51;18.00;99.90
16732;DHT22;8484;50.904;9.192;2022-10-16T09:57:20;18.60;99.90
16732;DHT22;8484;50.904;9.192;2022-10-16T09:59:48;18.80;99.90
16732;DHT22;8484;50.904;9.192;2022-10-16T10:02:17;19.10;99.90
16732;DHT22;8484;50.904;9.192;2022-10-16T10:04:49;17.50;99.90
16732;DHT22;8484;50.904;9.192;2022-10-16T10:07:23;20.30;99.90
16732;DHT22;8484;50.904;9.192;2022-10-16T10:09:51;20.90;99.90
16732;DHT22;8484;50.904;9.192;2022-10-16T10:12:21;21.10;99.90
16732;DHT22;8484;50.904;9.192;2022-10-16T10:14:50;21.30;99.90
16732;DHT22;8484;50.904;9.192;2022-10-16T10:17:20;21.20;99.90
16732;DHT22;8484;50.904;9.192;2022-10-16T10:19:52;21.00;99.90
16732;DHT22;8484;50.904;9.192;2022-10-16T10:22:31;22.20;99.90
16732;DHT22;8484;50.904;9.192;2022-10-16T10:25:24;20.80;99.90
16732;DHT22;8484;50.904;9.192;2022-10-16T10:28:19;21.30;99.90
16732;DHT22;8484;50.904;9.192;2022-10-16T10:30:56;21.00;99.90
16732;DHT22;8484;50.904;9.192;2022-10-16T10:33:31;22.00;99.90
16732;DHT22;8484;50.904;9.192;2022-10-16T10:36:08;22.70;99.90
16732;DHT22;8484;50.904;9.192;2022-10-16T10:38:46;22.90;99.90
16732;DHT22;8484;50.904;9.192;2022-10-16T10:41:27;21.40;99.90
16732;DHT22;8484;50.904;9.192;2022-10-16T10:44:08;21.10;99.90
16732;DHT22;8484;50.904;9.192;2022-10-16T10:46:41;21.00;99.90
16732;DHT22;8484;50.904;9.192;2022-10-16T10:49:24;20.80;99.90
16732;DHT22;8484;50.904;9.192;2022-10-16T10:52:02;19.80;99.90
16732;DHT22;8484;50.904;9.192;2022-10-16T10:54:37;19.80;99.90
16732;DHT22;8484;50.904;9.192;2022-10-16T10:57:10;20.10;99.90
16732;DHT22;8484;50.904;9.192;2022-10-16T11:00:06;19.70;99.90
16732;DHT22;8484;50.904;9.192;2022-10-16T11:02:41;21.30;99.90
16732;DHT22;8484;50.904;9.192;2022-10-16T11:05:27;23.20;99.90
16732;DHT22;8484;50.904;9.192;2022-10-16T11:07:59;22.70;99.90
16732;DHT22;8484;50.904;9.192;2022-10-16T11:10:30;21.40;99.90
16732;DHT22;8484;50.904;9.192;2022-10-16T11:13:07;20.50;99.90
16732;DHT22;8484;50.904;9.192;2022-10-16T11:15:40;19.60;99.90
16732;DHT22;8484;50.904;9.192;2022-10-16T11:18:13;20.50;99.90
16732;DHT22;8484;50.904;9.192;2022-10-16T11:20:45;21.60;99.90
16732;DHT22;8484;50.904;9.192;2022-10-16T11:23:17;21.60;99.90
16732;DHT22;8484;50.904;9.192;2022-10-16T11:25:46;22.20;99.90
16732;DHT22;8484;50.904;9.192;2022-10-16T11:28:16;22.70;99.90
16732;DHT22;8484;50.904;9.192;2022-10-16T11:30:50;23.30;99.90
16732;DHT22;8484;50.904;9.192;2022-10-16T11:33:25;23.50;99.90
16732;DHT22;8484;50.904;9.192;2022-10-16T11:36:00;23.20;99.90
16732;DHT22;8484;50.904;9.192;2022-10-16T11:38:32;22.60;99.90
16732;DHT22;8484;50.904;9.192;2022-10-16T11:41:04;23.70;99.90
16732;DHT22;8484;50.904;9.192;2022-10-16T11:43:40;22.20;99.90
16732;DHT22;8484;50.904;9.192;2022-10-16T11:46:13;21.60;99.90
16732;DHT22;8484;50.904;9.192;2022-10-16T11:48:46;23.20;99.90
16732;DHT22;8484;50.904;9.192;2022-10-16T11:51:20;23.00;99.90
16732;DHT22;8484;50.904;9.192;2022-10-16T11:53:53;23.20;99.90
16732;DHT22;8484;50.904;9.192;2022-10-16T11:56:24;23.40;99.90
16732;DHT22;8484;50.904;9.192;2022-10-16T11:58:56;24.10;99.90
16732;DHT22;8484;50.904;9.192;2022-10-16T12:01:31;23.30;99.90
16732;DHT22;8484;50.904;9.192;2022-10-16T12:04:05;23.50;99.90
16732;DHT22;8484;50.904;9.192;2022-10-16T12:06:36;24.10;99.90
16732;DHT22;8484;50.904;9.192;2022-10-16T12:09:04;23.50;99.90
16732;DHT22;8484;50.904;9.192;2022-10-16T12:11:34;24.00;99.90
16732;DHT22;8484;50.904;9.192;2022-10-16T12:14:16;24.10;99.90
16732;DHT22;8484;50.904;9.192;2022-10-16T12:16:54;23.50;99.90
16732;DHT22;8484;50.904;9.192;2022-10-16T12:19:22;23.10;99.90
16732;DHT22;8484;50.904;9.192;2022-10-16T12:21:51;23.80;99.90
16732;DHT22;8484;50.904;9.192;2022-10-16T12:24:23;22.80;99.90
16732;DHT22;8484;50.904;9.192;2022-10-16T12:26:54;21.80;99.90
16732;DHT22;8484;50.904;9.192;2022-10-16T12:29:30;22.50;99.90
16732;DHT22;8484;50.904;9.192;2022-10-16T12:32:00;23.20;99.90
16732;DHT22;8484;50.904;9.192;2022-10-16T12:34:32;22.40;99.90
16732;DHT22;8484;50.904;9.192;2022-10-16T12:37:10;24.00;99.90
16732;DHT22;8484;50.904;9.192;2022-10-16T12:39:37;23.70;99.90
16732;DHT22;8484;50.904;9.192;2022-10-16T12:42:18;24.60;99.90
16732;DHT22;8484;50.904;9.192;2022-10-16T12:44:46;23.30;99.90
16732;DHT22;8484;50.904;9.192;2022-10-16T12:47:22;23.50;99.90
16732;DHT22;8484;50.904;9.192;2022-10-16T12:49:51;22.60;99.90
16732;DHT22;8484;50.904;9.192;2022-10-16T12:52:27;22.30;99.90
16732;DHT22;8484;50.904;9.192;2022-10-16T12:54:57;23.10;99.90
16732;DHT22;8484;50.904;9.192;2022-10-16T12:57:37;23.10;99.90
16732;DHT22;8484;50.904;9.192;2022-10-16T13:00:15;23.10;99.90
16732;DHT22;8484;50.904;9.192;2022-10-16T13:05:52;22.30;99.90
16732;DHT22;8484;50.904;9.192;2022-10-16T13:08:35;22.40;99.90
16732;DHT22;8484;50.904;9.192;2022-10-16T13:11:10;22.50;99.90
16732;DHT22;8484;50.904;9.192;2022-10-16T13:14:01;22.50;99.90
16732;DHT22;8484;50.904;9.192;2022-10-16T13:16:40;22.50;99.90
16732;DHT22;8484;50.904;9.192;2022-10-16T13:19:23;22.50;99.90
16732;DHT22;8484;50.904;9.192;2022-10-16T13:21:59;22.30;99.90
16732;DHT22;8484;50.904;9.192;2022-10-16T13:24:42;22.20;99.90
16732;DHT22;8484;50.904;9.192;2022-10-16T13:27:20;22.10;99.90
16732;DHT22;8484;50.904;9.192;2022-10-16T13:29:52;22.00;99.90
16732;DHT22;8484;50.904;9.192;2022-10-16T13:32:21;21.30;99.90
16732;DHT22;8484;50.904;9.192;2022-10-16T13:34:49;21.00;99.90
16732;DHT22;8484;50.904;9.192;2022-10-16T13:37:18;21.20;99.90
16732;DHT22;8484;50.904;9.192;2022-10-16T13:39:46;21.40;99.90
16732;DHT22;8484;50.904;9.192;2022-10-16T13:42:15;21.70;99.90
16732;DHT22;8484;50.904;9.192;2022-10-16T13:44:45;22.10;99.90
16732;DHT22;8484;50.904;9.192;2022-10-16T13:47:17;21.80;99.90
16732;DHT22;8484;50.904;9.192;2022-10-16T13:49:45;21.10;99.90
16732;DHT22;8484;50.904;9.192;2022-10-16T13:52:18;20.50;99.90
16732;DHT22;8484;50.904;9.192;2022-10-16T13:54:45;20.50;99.90
16732;DHT22;8484;50.904;9.192;2022-10-16T13:57:14;20.50;99.90
16732;DHT22;8484;50.904;9.192;2022-10-16T13:59:41;20.70;99.90
16732;DHT22;8484;50.904;9.192;2022-10-16T14:02:17;20.60;99.90
16732;DHT22;8484;50.904;9.192;2022-10-16T14:04:45;20.50;99.90
16732;DHT22;8484;50.904;9.192;2022-10-16T14:07:16;20.40;99.90
16732;DHT22;8484;50.904;9.192;2022-10-16T14:09:48;20.10;99.90
16732;DHT22;8484;50.904;9.192;2022-10-16T14:12:16;20.60;99.90
16732;DHT22;8484;50.904;9.192;2022-10-16T14:14:44;20.20;99.90
16732;DHT22;8484;50.904;9.192;2022-10-16T14:17:15;20.40;99.90
16732;DHT22;8484;50.904;9.192;2022-10-16T14:19:46;20.00;99.90
16732;DHT22;8484;50.904;9.192;2022-10-16T14:22:28;19.60;99.90
16732;DHT22;8484;50.904;9.192;2022-10-16T14:24:57;19.60;99.90
16732;DHT22;8484;50.904;9.192;2022-10-16T14:27:29;19.50;99.90
16732;DHT22;8484;50.904;9.192;2022-10-16T14:30:17;19.60;99.90
16732;DHT22;8484;50.904;9.192;2022-10-16T14:32:54;19.60;99.90
16732;DHT22;8484;50.904;9.192;2022-10-16T14:35:24;19.80;99.90
16732;DHT22;8484;50.904;9.192;2022-10-16T14:37:52;19.80;99.90
16732;DHT22;8484;50.904;9.192;2022-10-16T14:40:21;19.70;99.90
16732;DHT22;8484;50.904;9.192;2022-10-16T14:42:49;19.50;99.90
16732;DHT22;8484;50.904;9.192;2022-10-16T14:45:20;19.30;99.90
16732;DHT22;8484;50.904;9.192;2022-10-16T14:47:52;19.00;99.90
16732;DHT22;8484;50.904;9.192;2022-10-16T14:50:21;18.90;99.90
16732;DHT22;8484;50.904;9.192;2022-10-16T14:52:47;18.70;99.90
16732;DHT22;8484;50.904;9.192;2022-10-16T14:55:15;18.70;99.90
16732;DHT22;8484;50.904;9.192;2022-10-16T14:57:44;18.90;99.90
16732;DHT22;8484;50.904;9.192;2022-10-16T15:00:18;19.10;99.90
16732;DHT22;8484;50.904;9.192;2022-10-16T15:02:46;19.10;99.90
16732;DHT22;8484;50.904;9.192;2022-10-16T15:05:16;18.90;99.90
16732;DHT22;8484;50.904;9.192;2022-10-16T15:07:44;19.30;99.90
16732;DHT22;8484;50.904;9.192;2022-10-16T15:10:12;18.70;99.90
16732;DHT22;8484;50.904;9.192;2022-10-16T15:12:39;18.50;99.90
16732;DHT22;8484;50.904;9.192;2022-10-16T15:15:26;18.50;99.90
16732;DHT22;8484;50.904;9.192;2022-10-16T15:17:56;18.40;99.90
16732;DHT22;8484;50.904;9.192;2022-10-16T15:20:23;18.40;99.90
16732;DHT22;8484;50.904;9.192;2022-10-16T15:22:50;18.30;99.90
16732;DHT22;8484;50.904;9.192;2022-10-16T15:25:28;18.10;99.90
16732;DHT22;8484;50.904;9.192;2022-10-16T15:28:00;18.50;99.90
16732;DHT22;8484;50.904;9.192;2022-10-16T15:30:29;18.50;99.90
16732;DHT22;8484;50.904;9.192;2022-10-16T15:32:56;18.00;99.90
16732;DHT22;8484;50.904;9.192;2022-10-16T15:35:22;18.60;99.90
16732;DHT22;8484;50.904;9.192;2022-10-16T15:37:49;18.00;99.90
16732;DHT22;8484;50.904;9.192;2022-10-16T15:40:18;18.10;99.90
16732;DHT22;8484;50.904;9.192;2022-10-16T15:42:46;18.50;99.90
16732;DHT22;8484;50.904;9.192;2022-10-16T15:45:13;18.00;99.90
16732;DHT22;8484;50.904;9.192;2022-10-16T15:47:46;17.80;99.90
16732;DHT22;8484;50.904;9.192;2022-10-16T15:50:14;17.60;99.90
16732;DHT22;8484;50.904;9.192;2022-10-16T15:52:41;17.50;99.90
16732;DHT22;8484;50.904;9.192;2022-10-16T15:55:09;17.50;99.90
16732;DHT22;8484;50.904;9.192;2022-10-16T15:57:37;17.40;99.90
16732;DHT22;8484;50.904;9.192;2022-10-16T16:00:07;17.40;99.90
16732;DHT22;8484;50.904;9.192;2022-10-16T16:02:34;17.40;99.90
16732;DHT22;8484;50.904;9.192;2022-10-16T16:05:03;17.90;99.90
16732;DHT22;8484;50.904;9.192;2022-10-16T16:07:32;17.40;99.90
16732;DHT22;8484;50.904;9.192;2022-10-16T16:09:59;17.40;99.90
16732;DHT22;8484;50.904;9.192;2022-10-16T16:12:26;17.30;99.90
16732;DHT22;8484;50.904;9.192;2022-10-16T16:14:53;17.30;99.90
16732;DHT22;8484;50.904;9.192;2022-10-16T16:17:20;17.20;99.90
16732;DHT22;8484;50.904;9.192;2022-10-16T16:19:47;17.20;99.90
16732;DHT22;8484;50.904;9.192;2022-10-16T16:22:15;17.60;99.90
16732;DHT22;8484;50.904;9.192;2022-10-16T16:24:42;17.00;99.90
16732;DHT22;8484;50.904;9.192;2022-10-16T16:27:09;17.00;99.90
16732;DHT22;8484;50.904;9.192;2022-10-16T16:29:36;17.40;99.90